F/V Gwel A Vo — FHIJ — position and weather

sailwx.info

Track history (hours):
 
Tides and Currents Weather Stations Pressure Air Temp Water Temp Dewpoint Dewpoint Depression Visibility Wind Speed Wind Dir Waves Ship Positions

F/V Gwel A Vo

Last reported at 2018-May-20 17:19 UTC. Time now 2018-May-24 14:08 UTC.
Position N 50°46' W 008°16'.

Length 25 m.

Type: Fishing. MMSI: 228131000.

Date/timePositionNaut miles runAvg speedWind from/ knotsBaromVisibWave heightAir tempDewpointWater temp
2018-May-20 17:19N 50°46' W 008°16'22 1.8
2018-May-20 04:51N 50°50' W 007°42'3 0.2
2018-May-19 13:10N 50°49' W 007°46'0 1.0
2018-May-19 12:59N 50°49' W 007°46'2 2.7
2018-May-19 12:23N 50°50' W 007°44'1 3.2
2018-May-19 11:58N 50°50' W 007°42'116 2.8
2018-May-17 18:47N 49°12' W 006°07'2 9.1
2018-May-17 18:31N 49°10' W 006°06'7 9.3
2018-May-17 17:48N 49°04' W 006°04'6 9.5
2018-May-17 17:11N 48°58' W 006°00'2 9.6
2018-May-17 17:00N 48°57' W 005°59'49 9.4
2018-May-17 11:48N 48°20' W 005°11'7 8.3
2018-May-17 10:58N 48°14' W 005°05'9 8.9
2018-May-17 09:58N 48°07' W 004°56'5 9.5
2018-May-17 09:25N 48°04' W 004°50'4 8.7
2018-May-17 09:00N 48°02' W 004°46'20 8.8
2018-May-17 06:43N 47°49' W 004°23'  
Track history (hours):
 
Tides and Currents Weather Stations Pressure Air Temp Water Temp Dewpoint Dewpoint Depression Visibility Wind Speed Wind Dir Waves Ship Positions

F/V Gwel A Vo

Last reported at 2018-May-20 17:19 UTC. Time now 2018-May-24 14:08 UTC.
Position N 50°46' W 008°16'.

Length 25 m.

Type: Fishing. MMSI: 228131000.

Date/timePositionNaut miles runAvg speedWind from/ knotsBaromVisibWave heightAir tempDewpointWater temp
2018-May-20 17:19N 50°46' W 008°16'22 1.8
2018-May-20 04:51N 50°50' W 007°42'3 0.2
2018-May-19 13:10N 50°49' W 007°46'0 1.0
2018-May-19 12:59N 50°49' W 007°46'2 2.7
2018-May-19 12:23N 50°50' W 007°44'1 3.2
2018-May-19 11:58N 50°50' W 007°42'116 2.8
2018-May-17 18:47N 49°12' W 006°07'2 9.1
2018-May-17 18:31N 49°10' W 006°06'7 9.3
2018-May-17 17:48N 49°04' W 006°04'6 9.5
2018-May-17 17:11N 48°58' W 006°00'2 9.6
2018-May-17 17:00N 48°57' W 005°59'49 9.4
2018-May-17 11:48N 48°20' W 005°11'7 8.3
2018-May-17 10:58N 48°14' W 005°05'9 8.9
2018-May-17 09:58N 48°07' W 004°56'5 9.5
2018-May-17 09:25N 48°04' W 004°50'4 8.7
2018-May-17 09:00N 48°02' W 004°46'20 8.8
2018-May-17 06:43N 47°49' W 004°23'  

Dump ship's entire track history